createdAt,value
2022-09-13T00:01:54.110Z,69.91
2022-09-13T00:04:21.229Z,70.95
2022-09-13T00:06:48.362Z,70.55
2022-09-13T00:09:15.416Z,68.98
2022-09-13T00:11:42.587Z,69.69
2022-09-13T00:14:09.464Z,71.17
2022-09-13T00:16:37.247Z,69.02
2022-09-13T00:19:04.368Z,71.52
2022-09-13T00:21:31.254Z,72.51
2022-09-13T00:23:58.489Z,73.21
2022-09-13T00:26:28.361Z,71.14
2022-09-13T00:28:58.984Z,70.11
2022-09-13T00:31:29.372Z,73.29
2022-09-13T00:34:00.010Z,72.49
2022-09-13T00:36:27.834Z,71.18
2022-09-13T00:38:55.181Z,72.63
2022-09-13T00:41:22.703Z,71.71
2022-09-13T00:43:59.964Z,72.92
2022-09-13T00:46:48.697Z,70.86
2022-09-13T00:49:21.959Z,69.26
2022-09-13T00:52:03.693Z,71.25
2022-09-13T00:54:44.512Z,72.32
2022-09-13T00:57:14.410Z,72.58
2022-09-13T00:59:51.986Z,69.59
2022-09-13T01:02:20.599Z,70.38
2022-09-13T01:04:47.899Z,74.10
2022-09-13T01:07:17.489Z,75.55
2022-09-13T01:09:48.177Z,75.52
2022-09-13T01:12:40.703Z,73.69
2022-09-13T01:15:08.767Z,73.76
2022-09-13T01:17:36.673Z,71.51
2022-09-13T01:20:06.814Z,70.71
2022-09-13T01:22:51.647Z,72.70
2022-09-13T01:26:02.608Z,71.64
2022-09-13T01:28:58.906Z,71.89
2022-09-13T01:31:45.833Z,71.13
2022-09-13T01:34:54.845Z,69.95
2022-09-13T01:37:49.841Z,69.30
2022-09-13T01:40:43.988Z,70.69
2022-09-13T01:43:38.177Z,70.18
2022-09-13T01:46:28.751Z,71.27
2022-09-13T01:49:32.447Z,71.31
2022-09-13T01:52:15.664Z,72.13
2022-09-13T01:54:54.020Z,74.92
2022-09-13T01:57:56.997Z,73.41
2022-09-13T02:00:24.675Z,74.39
2022-09-13T02:03:12.341Z,72.00
2022-09-13T02:05:54.479Z,74.03
2022-09-13T02:08:53.712Z,70.85
2022-09-13T02:11:22.669Z,74.43
2022-09-13T02:14:15.420Z,72.07
2022-09-13T02:17:01.649Z,72.66
2022-09-13T02:19:52.958Z,75.11
2022-09-13T02:22:27.790Z,75.17
2022-09-13T02:25:02.020Z,76.67
2022-09-13T02:27:35.057Z,75.85
2022-09-13T02:33:08.328Z,75.58
2022-09-13T02:36:13.113Z,75.56
2022-09-13T02:38:52.482Z,74.91
2022-09-13T02:41:39.494Z,73.79
2022-09-13T02:44:19.736Z,71.49
2022-09-13T02:47:14.493Z,70.69
2022-09-13T02:50:12.527Z,76.34
2022-09-13T02:53:02.871Z,74.41
2022-09-13T02:56:05.691Z,73.86
2022-09-13T02:58:56.998Z,74.72
2022-09-13T03:01:25.440Z,74.32
2022-09-13T03:03:56.430Z,74.56
2022-09-13T03:06:28.945Z,73.58
2022-09-13T03:09:00.961Z,73.65
2022-09-13T03:11:49.687Z,74.76
2022-09-13T03:14:30.569Z,75.01
2022-09-13T03:17:12.699Z,74.18
2022-09-13T03:19:51.469Z,75.36
2022-09-13T03:22:45.683Z,75.29
2022-09-13T03:25:39.456Z,74.17
2022-09-13T03:28:53.566Z,73.33
2022-09-13T03:31:59.705Z,74.88
2022-09-13T03:35:00.647Z,74.94
2022-09-13T03:37:53.497Z,74.50
2022-09-13T03:40:32.416Z,75.03
2022-09-13T03:43:36.006Z,72.66
2022-09-13T03:46:45.846Z,73.31
2022-09-13T03:49:19.039Z,71.93
2022-09-13T03:51:49.904Z,74.16
2022-09-13T03:54:28.059Z,76.18
2022-09-13T03:57:22.432Z,74.25
2022-09-13T03:59:53.518Z,74.02
2022-09-13T04:02:23.368Z,72.71
2022-09-13T04:04:50.993Z,72.96
2022-09-13T04:07:24.530Z,75.01
2022-09-13T04:09:51.823Z,73.68
2022-09-13T04:12:18.927Z,76.37
2022-09-13T04:14:46.518Z,72.89
2022-09-13T04:17:14.243Z,73.03
2022-09-13T04:19:42.416Z,76.48
2022-09-13T04:22:09.506Z,74.97
2022-09-13T04:24:36.569Z,76.26
2022-09-13T04:27:04.290Z,75.92
2022-09-13T04:29:33.738Z,74.54
2022-09-13T04:32:00.984Z,72.82
2022-09-13T04:34:28.150Z,75.13
2022-09-13T04:36:55.551Z,76.48
2022-09-13T04:39:23.786Z,75.78
2022-09-13T04:41:54.423Z,76.77
2022-09-13T04:44:24.790Z,75.96
2022-09-13T04:46:51.959Z,79.26
2022-09-13T04:49:20.467Z,77.79
2022-09-13T04:51:47.916Z,76.46
2022-09-13T04:54:16.419Z,76.64
2022-09-13T04:56:47.238Z,76.27
2022-09-13T04:59:15.180Z,75.88
2022-09-13T05:01:42.525Z,77.86
2022-09-13T05:04:10.724Z,79.81
2022-09-13T05:06:38.078Z,78.39
2022-09-13T05:09:05.994Z,77.17
2022-09-13T05:11:33.750Z,75.83
2022-09-13T05:14:01.636Z,74.64
2022-09-13T05:16:32.715Z,73.87
2022-09-13T05:19:00.687Z,73.93
2022-09-13T05:21:28.750Z,71.95
2022-09-13T05:23:57.232Z,73.54
2022-09-13T05:26:29.553Z,74.97
2022-09-13T05:28:56.812Z,74.38
2022-09-13T05:31:31.887Z,74.56
2022-09-13T05:34:06.598Z,74.12
2022-09-13T05:36:34.741Z,74.30
2022-09-13T05:41:49.533Z,74.75
2022-09-13T05:44:16.453Z,74.49
2022-09-13T05:46:48.588Z,73.24
2022-09-13T05:49:15.779Z,71.25
2022-09-13T05:51:42.866Z,74.44
2022-09-13T05:54:12.890Z,75.94
2022-09-13T05:56:40.308Z,76.06
2022-09-13T05:59:08.920Z,75.07
2022-09-13T06:01:36.323Z,70.03
2022-09-13T06:04:03.618Z,62.66
2022-09-13T06:06:30.517Z,59.48
2022-09-13T06:08:58.563Z,58.97
2022-09-13T06:11:26.612Z,54.76
2022-09-13T06:13:53.688Z,54.27
2022-09-13T06:16:21.477Z,54.13
2022-09-13T06:18:49.138Z,56.98
2022-09-13T06:21:27.023Z,62.87
2022-09-13T06:23:55.930Z,66.22
2022-09-13T06:26:26.447Z,64.37
2022-09-13T06:28:56.703Z,63.07
2022-09-13T06:31:26.547Z,62.59
2022-09-13T06:34:02.988Z,63.15
2022-09-13T06:36:31.098Z,63.50
2022-09-13T06:39:00.448Z,65.10
2022-09-13T06:41:28.122Z,63.93
2022-09-13T06:43:58.674Z,65.86
2022-09-13T06:46:28.478Z,64.56
2022-09-13T06:48:58.752Z,64.59
2022-09-13T06:51:26.785Z,64.65
2022-09-13T06:53:56.640Z,63.37
2022-09-13T06:56:36.119Z,63.39
2022-09-13T06:59:07.637Z,63.52
2022-09-13T07:01:41.521Z,64.00
2022-09-13T07:04:12.472Z,64.59
2022-09-13T07:06:43.742Z,64.17
2022-09-13T07:09:17.156Z,66.36
2022-09-13T07:11:45.612Z,65.47
2022-09-13T07:14:16.206Z,64.98
2022-09-13T07:16:44.393Z,65.22
2022-09-13T07:19:18.148Z,63.69
2022-09-13T07:21:45.966Z,63.01
2022-09-13T07:24:13.076Z,62.41
2022-09-13T07:26:40.197Z,63.08
2022-09-13T07:29:10.707Z,63.10
2022-09-13T07:31:40.741Z,64.53
2022-09-13T07:34:13.071Z,63.59
2022-09-13T07:36:40.161Z,62.87
2022-09-13T07:39:10.905Z,61.92
2022-09-13T07:41:41.694Z,63.30
2022-09-13T07:44:11.678Z,63.43
2022-09-13T07:46:43.889Z,61.76
2022-09-13T07:49:14.169Z,63.30
2022-09-13T07:51:43.523Z,61.67
2022-09-13T07:54:18.028Z,61.74
2022-09-13T07:56:45.911Z,61.75
2022-09-13T07:59:17.896Z,62.53
2022-09-13T08:01:48.458Z,61.89
2022-09-13T08:04:20.046Z,61.84
2022-09-13T08:06:47.134Z,62.56
2022-09-13T08:09:15.516Z,62.57
2022-09-13T08:11:46.228Z,61.52
2022-09-13T08:14:16.926Z,62.70
2022-09-13T08:16:44.394Z,60.67
2022-09-13T08:19:16.374Z,61.27
2022-09-13T08:21:44.308Z,62.01
2022-09-13T08:24:21.556Z,60.72
2022-09-13T08:26:49.725Z,61.52
2022-09-13T08:29:17.453Z,60.79
2022-09-13T08:31:44.974Z,61.50
2022-09-13T08:34:15.003Z,59.77
2022-09-13T08:36:42.801Z,59.54
2022-09-13T08:39:13.761Z,59.54
2022-09-13T08:41:45.308Z,58.59
2022-09-13T08:44:43.495Z,59.77
2022-09-13T08:47:35.093Z,57.88
2022-09-13T08:50:27.658Z,58.17
2022-09-13T08:53:19.976Z,57.47
2022-09-13T08:56:02.149Z,58.11
2022-09-13T08:59:12.789Z,57.30
2022-09-13T09:02:04.540Z,60.04
2022-09-13T09:04:58.537Z,57.12
2022-09-13T09:07:33.139Z,56.37
2022-09-13T09:10:14.611Z,56.15
2022-09-13T09:12:50.934Z,55.84
2022-09-13T09:15:35.792Z,57.15
2022-09-13T09:18:12.766Z,57.01
2022-09-13T09:20:50.238Z,55.52
2022-09-13T09:23:26.258Z,56.57
2022-09-13T09:26:23.936Z,54.94
2022-09-13T09:28:55.011Z,55.52
2022-09-13T09:32:03.223Z,56.10
2022-09-13T09:34:48.982Z,56.24
2022-09-13T09:37:26.337Z,54.16
2022-09-13T09:39:56.265Z,55.71
2022-09-13T09:42:29.670Z,54.50
2022-09-13T09:45:18.311Z,54.29
2022-09-13T09:47:49.994Z,54.99
2022-09-13T09:50:28.831Z,55.38
2022-09-13T09:53:07.402Z,53.05
2022-09-13T09:56:02.818Z,53.22
2022-09-13T09:58:45.391Z,52.44
2022-09-13T10:01:32.790Z,53.15
2022-09-13T10:04:05.027Z,51.09
2022-09-13T10:06:32.671Z,51.83
2022-09-13T10:09:16.745Z,51.70
2022-09-13T10:11:48.556Z,53.12
2022-09-13T10:14:38.240Z,51.67
2022-09-13T10:17:27.602Z,51.53
2022-09-13T10:20:01.326Z,51.87
2022-09-13T10:22:33.624Z,51.96
2022-09-13T10:25:21.419Z,51.41
2022-09-13T10:27:55.051Z,52.23
2022-09-13T10:30:58.589Z,51.28
2022-09-13T10:33:39.992Z,51.48
2022-09-13T10:36:41.561Z,50.90
2022-09-13T10:39:18.157Z,50.58
2022-09-13T10:41:56.791Z,52.14
2022-09-13T10:44:46.613Z,51.21
2022-09-13T10:47:26.186Z,51.63
2022-09-13T10:49:57.007Z,50.22
2022-09-13T10:52:25.714Z,48.99
2022-09-13T10:54:54.088Z,48.95
2022-09-13T10:57:49.608Z,49.57
2022-09-13T11:00:35.273Z,48.19
2022-09-13T11:03:21.589Z,48.02
2022-09-13T11:06:21.233Z,47.51
2022-09-13T11:08:58.024Z,47.73
2022-09-13T11:11:54.327Z,48.55
2022-09-13T11:14:58.616Z,47.70
2022-09-13T11:18:09.069Z,47.99
2022-09-13T11:20:54.040Z,46.76
2022-09-13T11:24:04.156Z,46.40
2022-09-13T11:26:52.783Z,46.91
2022-09-13T11:29:58.652Z,46.41
2022-09-13T11:32:59.629Z,45.86
2022-09-13T11:35:59.449Z,46.94
2022-09-13T11:38:56.079Z,47.57
2022-09-13T11:41:50.856Z,46.53
2022-09-13T11:44:52.275Z,46.88
2022-09-13T11:47:31.620Z,45.60
2022-09-13T11:50:14.425Z,47.26
2022-09-13T11:52:50.035Z,46.22
2022-09-13T11:55:29.519Z,47.29
2022-09-13T11:58:09.119Z,45.59
2022-09-13T12:00:43.997Z,46.96
2022-09-13T12:03:11.118Z,45.76
2022-09-13T12:06:28.014Z,45.07
2022-09-13T12:09:02.940Z,45.39
2022-09-13T12:11:39.864Z,44.78
2022-09-13T12:14:20.372Z,44.04
2022-09-13T12:16:52.606Z,45.77
2022-09-13T12:19:46.713Z,43.81
2022-09-13T12:22:14.312Z,45.14
2022-09-13T12:24:51.170Z,45.32
2022-09-13T12:27:42.132Z,44.52
2022-09-13T12:30:18.480Z,45.42
2022-09-13T12:32:48.426Z,44.40
2022-09-13T12:36:01.444Z,44.24
2022-09-13T12:39:00.503Z,43.76
2022-09-13T12:42:02.091Z,43.91
2022-09-13T12:45:01.901Z,42.78
2022-09-13T12:48:04.617Z,43.42
2022-09-13T12:50:59.151Z,45.04
2022-09-13T12:54:29.570Z,43.41
2022-09-13T12:57:36.884Z,44.34
2022-09-13T13:00:28.358Z,45.16
2022-09-13T13:03:13.559Z,43.05
2022-09-13T13:05:52.411Z,43.35
2022-09-13T13:08:22.293Z,43.51
2022-09-13T13:11:13.842Z,43.36
2022-09-13T13:13:52.996Z,44.54
2022-09-13T13:16:34.087Z,42.84
2022-09-13T13:19:26.168Z,42.75
2022-09-13T13:21:54.323Z,42.60
2022-09-13T13:24:21.216Z,44.20
2022-09-13T13:26:58.872Z,44.64
2022-09-13T13:29:33.351Z,44.82
2022-09-13T13:32:03.929Z,43.87
2022-09-13T13:34:38.994Z,43.88
2022-09-13T13:37:08.861Z,42.97
2022-09-13T13:39:47.148Z,43.77
2022-09-13T13:42:31.686Z,43.67
2022-09-13T13:45:25.754Z,42.48
2022-09-13T13:48:08.676Z,43.64
2022-09-13T13:50:39.266Z,43.03
2022-09-13T13:53:35.281Z,43.30
2022-09-13T13:56:44.841Z,43.27
2022-09-13T13:59:32.659Z,43.19
2022-09-13T14:02:02.055Z,44.92
2022-09-13T14:04:50.715Z,45.26
2022-09-13T14:07:49.886Z,45.69
2022-09-13T14:10:32.783Z,45.01
2022-09-13T14:13:32.115Z,47.22
2022-09-13T14:16:05.848Z,45.08
2022-09-13T14:18:54.546Z,45.46
2022-09-13T14:21:31.307Z,45.93
2022-09-13T14:24:28.164Z,45.47
2022-09-13T14:27:03.969Z,45.06
2022-09-13T14:29:33.248Z,45.32
2022-09-13T14:32:07.153Z,46.14
2022-09-13T14:34:38.658Z,45.96
2022-09-13T14:37:22.404Z,44.57
2022-09-13T14:39:55.395Z,45.30
2022-09-13T14:42:22.936Z,45.28
2022-09-13T14:44:50.448Z,45.84
2022-09-13T14:47:29.220Z,45.58
2022-09-13T14:50:07.278Z,46.17
2022-09-13T14:52:46.212Z,46.66
2022-09-13T14:55:20.412Z,46.46
2022-09-13T14:57:53.112Z,47.64
2022-09-13T15:00:25.582Z,46.60
2022-09-13T15:03:01.681Z,46.31
2022-09-13T15:05:33.196Z,46.71
2022-09-13T15:08:00.420Z,47.12
2022-09-13T15:10:33.291Z,46.89
2022-09-13T15:13:06.403Z,47.20
2022-09-13T15:15:43.422Z,47.38
2022-09-13T15:18:23.870Z,47.46
2022-09-13T15:21:16.452Z,47.65
2022-09-13T15:23:50.936Z,47.58
2022-09-13T15:26:25.656Z,47.09
2022-09-13T15:29:03.232Z,47.88
2022-09-13T15:31:34.639Z,48.78
2022-09-13T15:34:13.810Z,47.28
2022-09-13T15:36:40.753Z,47.77
2022-09-13T15:39:20.330Z,46.68
2022-09-13T15:42:00.428Z,46.40
2022-09-13T15:44:30.142Z,45.81
2022-09-13T15:47:04.928Z,45.96
2022-09-13T15:49:32.629Z,45.66
2022-09-13T15:52:02.972Z,45.21
2022-09-13T15:54:37.314Z,46.32
2022-09-13T15:57:33.231Z,45.65
2022-09-13T16:00:05.564Z,46.72
2022-09-13T16:02:36.746Z,47.63
2022-09-13T16:05:03.969Z,46.40
2022-09-13T16:07:31.074Z,48.09
2022-09-13T16:09:57.980Z,47.54
2022-09-13T16:12:26.970Z,47.02
2022-09-13T16:14:54.687Z,47.14
2022-09-13T16:17:25.851Z,47.89
2022-09-13T16:19:54.434Z,47.54
2022-09-13T16:22:22.250Z,47.88
2022-09-13T16:24:50.635Z,48.72
2022-09-13T16:27:19.653Z,47.99
2022-09-13T16:29:47.356Z,48.22
2022-09-13T16:32:14.405Z,48.29
2022-09-13T16:34:41.399Z,48.79
2022-09-13T16:37:08.343Z,49.30
2022-09-13T16:39:35.241Z,51.53
2022-09-13T16:42:04.988Z,51.82
2022-09-13T16:44:31.934Z,52.78
2022-09-13T16:46:59.118Z,53.39
2022-09-13T16:49:26.730Z,53.63
2022-09-13T16:51:53.675Z,53.81
2022-09-13T16:54:20.805Z,54.80
2022-09-13T16:56:48.378Z,54.27
2022-09-13T16:59:15.344Z,53.46
2022-09-13T17:01:42.586Z,52.07
2022-09-13T17:04:11.366Z,53.17
2022-09-13T17:06:38.359Z,56.03
2022-09-13T17:09:08.353Z,54.92
2022-09-13T17:11:38.958Z,54.84
2022-09-13T17:14:09.323Z,54.41
2022-09-13T17:16:44.897Z,54.33
2022-09-13T17:19:18.346Z,55.68
2022-09-13T17:21:46.527Z,55.64
2022-09-13T17:24:13.899Z,55.61
2022-09-13T17:26:43.355Z,55.74
2022-09-13T17:29:15.174Z,55.48
2022-09-13T17:31:43.509Z,56.35
2022-09-13T17:34:13.097Z,57.48
2022-09-13T17:36:41.481Z,58.06
2022-09-13T17:39:09.963Z,59.28
2022-09-13T17:41:37.310Z,58.31
2022-09-13T17:44:05.291Z,58.42
2022-09-13T17:46:32.260Z,59.72
2022-09-13T17:49:00.780Z,61.52
2022-09-13T17:51:31.730Z,59.65
2022-09-13T17:54:03.052Z,60.48
2022-09-13T17:56:39.114Z,60.06
2022-09-13T17:59:15.161Z,59.53
2022-09-13T18:01:45.978Z,61.42
2022-09-13T18:04:14.890Z,60.63
2022-09-13T18:06:44.858Z,59.91
2022-09-13T18:09:14.381Z,61.54
2022-09-13T18:11:42.349Z,62.18
2022-09-13T18:14:18.711Z,62.71
2022-09-13T18:16:46.744Z,61.51
2022-09-13T18:19:14.073Z,62.18
2022-09-13T18:21:41.064Z,62.23
2022-09-13T18:24:08.771Z,61.37
2022-09-13T18:26:36.819Z,61.52
2022-09-13T18:29:09.258Z,60.85
2022-09-13T18:31:37.510Z,63.04
2022-09-13T18:34:13.978Z,63.54
2022-09-13T18:36:41.748Z,62.72
2022-09-13T18:39:18.073Z,65.44
2022-09-13T18:41:46.958Z,64.39
2022-09-13T18:44:16.145Z,63.14
2022-09-13T18:46:43.473Z,62.78
2022-09-13T18:49:10.977Z,63.04
2022-09-13T18:51:44.172Z,63.39
2022-09-13T18:54:16.046Z,63.60
2022-09-13T18:56:43.796Z,64.38
2022-09-13T18:59:11.494Z,63.51
2022-09-13T19:01:43.990Z,63.70
2022-09-13T19:04:18.189Z,63.70
2022-09-13T19:06:48.898Z,63.61
2022-09-13T19:09:17.514Z,65.06
2022-09-13T19:11:49.260Z,64.07
2022-09-13T19:14:24.500Z,63.51
2022-09-13T19:16:54.788Z,63.50
2022-09-13T19:19:22.295Z,64.26
2022-09-13T19:21:49.957Z,64.35
2022-09-13T19:24:18.638Z,65.25
2022-09-13T19:26:50.628Z,66.00
2022-09-13T19:29:23.079Z,65.48
2022-09-13T19:31:52.388Z,64.45
2022-09-13T19:34:21.966Z,64.02
2022-09-13T19:36:52.499Z,63.74
2022-09-13T19:39:19.595Z,64.19
2022-09-13T19:41:46.587Z,63.94
2022-09-13T19:44:14.404Z,63.39
2022-09-13T19:46:42.335Z,63.13
2022-09-13T19:49:14.318Z,63.91
2022-09-13T19:51:45.516Z,63.12
2022-09-13T19:54:18.052Z,63.82
2022-09-13T19:56:45.115Z,62.18
2022-09-13T19:59:17.101Z,61.94
2022-09-13T20:01:46.122Z,62.98
2022-09-13T20:04:16.561Z,61.07
2022-09-13T20:06:48.903Z,62.90
2022-09-13T20:09:18.621Z,63.09
2022-09-13T20:11:47.380Z,64.13
2022-09-13T20:14:20.356Z,63.51
2022-09-13T20:16:47.896Z,65.26
2022-09-13T20:19:39.701Z,63.69
2022-09-13T20:22:08.573Z,63.64
2022-09-13T20:24:35.988Z,64.17
2022-09-13T20:27:03.027Z,63.54
2022-09-13T20:29:31.700Z,62.84
2022-09-13T20:31:59.566Z,63.14
2022-09-13T20:34:27.251Z,62.78
2022-09-13T20:36:54.253Z,64.73
2022-09-13T20:39:21.141Z,64.23
2022-09-13T20:41:50.277Z,64.80
2022-09-13T20:44:17.513Z,64.27
2022-09-13T20:46:44.739Z,64.29
2022-09-13T20:49:11.877Z,64.83
2022-09-13T20:51:39.522Z,65.49
2022-09-13T20:54:07.691Z,65.40
2022-09-13T20:56:36.058Z,64.59
2022-09-13T20:59:04.079Z,64.59
2022-09-13T21:01:32.782Z,64.50
2022-09-13T21:04:00.340Z,64.08
2022-09-13T21:06:31.366Z,63.55
2022-09-13T21:09:00.051Z,64.70
2022-09-13T21:11:35.216Z,65.16
2022-09-13T21:14:06.465Z,65.75
2022-09-13T21:16:39.243Z,66.40
2022-09-13T21:19:07.864Z,66.98
2022-09-13T21:21:38.935Z,68.38
2022-09-13T21:24:09.799Z,66.84
2022-09-13T21:26:41.995Z,65.72
2022-09-13T21:29:10.406Z,67.92
2022-09-13T21:31:38.201Z,68.38
2022-09-13T21:34:08.482Z,66.48
2022-09-13T21:36:36.006Z,67.58
2022-09-13T21:39:04.866Z,66.67
2022-09-13T21:41:32.905Z,67.88
2022-09-13T21:43:59.880Z,69.05
2022-09-13T21:46:30.553Z,68.07
2022-09-13T21:49:02.222Z,68.58
2022-09-13T21:51:33.541Z,67.94
2022-09-13T21:54:02.803Z,68.29
2022-09-13T21:56:32.084Z,66.79
2022-09-13T21:59:02.460Z,66.96
2022-09-13T22:01:33.644Z,66.93
2022-09-13T22:04:01.627Z,65.88
2022-09-13T22:06:33.715Z,68.45
2022-09-13T22:09:05.455Z,69.60
2022-09-13T22:11:39.577Z,68.97
2022-09-13T22:14:09.410Z,67.61
2022-09-13T22:16:39.384Z,67.79
2022-09-13T22:19:11.124Z,67.88
2022-09-13T22:21:43.199Z,69.14
2022-09-13T22:24:16.083Z,66.72
2022-09-13T22:26:44.687Z,69.33
2022-09-13T22:29:12.134Z,67.12
2022-09-13T22:31:41.404Z,68.90
2022-09-13T22:34:13.240Z,67.71
2022-09-13T22:36:40.895Z,70.00
2022-09-13T22:39:11.237Z,68.54
2022-09-13T22:41:38.313Z,68.15
2022-09-13T22:44:06.069Z,67.96
2022-09-13T22:46:42.967Z,69.77
2022-09-13T22:49:17.216Z,70.53
2022-09-13T22:51:45.552Z,69.53
2022-09-13T22:54:14.323Z,67.02
2022-09-13T22:56:42.621Z,66.20
2022-09-13T22:59:16.760Z,68.56
2022-09-13T23:01:44.387Z,69.38
2022-09-13T23:04:12.453Z,66.76
2022-09-13T23:06:41.181Z,68.64
2022-09-13T23:09:08.789Z,67.56
2022-09-13T23:11:38.783Z,66.95
2022-09-13T23:14:14.492Z,67.12
2022-09-13T23:16:45.616Z,66.40
2022-09-13T23:19:14.065Z,68.86
2022-09-13T23:21:42.795Z,68.95
2022-09-13T23:24:16.283Z,68.08
2022-09-13T23:26:44.992Z,68.32
2022-09-13T23:29:15.216Z,68.20
2022-09-13T23:31:43.432Z,68.74
2022-09-13T23:34:11.918Z,67.19
2022-09-13T23:36:41.773Z,66.59
2022-09-13T23:39:16.790Z,68.09
2022-09-13T23:41:45.820Z,68.81
2022-09-13T23:44:12.987Z,68.32
2022-09-13T23:46:40.205Z,69.93
2022-09-13T23:49:07.107Z,70.00
2022-09-13T23:51:34.327Z,70.01
2022-09-13T23:54:01.806Z,69.12
2022-09-13T23:56:31.305Z,67.14
2022-09-13T23:59:01.339Z,68.33
